createdAt,value
2022-10-18T00:01:01.481Z,2.67
2022-10-18T00:03:29.119Z,2.90
2022-10-18T00:05:56.288Z,3.40
2022-10-18T00:08:23.538Z,3.00
2022-10-18T00:10:50.974Z,2.93
2022-10-18T00:13:18.877Z,3.53
2022-10-18T00:15:57.392Z,3.60
2022-10-18T00:18:25.109Z,3.50
2022-10-18T00:21:06.315Z,3.07
2022-10-18T00:23:35.100Z,3.47
2022-10-18T00:26:06.195Z,3.07
2022-10-18T00:28:35.167Z,3.13
2022-10-18T00:31:13.910Z,3.17
2022-10-18T00:33:44.887Z,3.20
2022-10-18T00:36:12.994Z,4.17
2022-10-18T00:38:41.080Z,3.70
2022-10-18T00:41:11.599Z,3.23
2022-10-18T00:44:04.775Z,4.00
2022-10-18T00:46:38.636Z,4.20
2022-10-18T00:49:21.496Z,3.37
2022-10-18T00:52:19.709Z,3.77
2022-10-18T00:54:48.777Z,3.83
2022-10-18T00:57:16.313Z,3.40
2022-10-18T00:59:44.484Z,2.93
2022-10-18T01:02:15.051Z,3.33
2022-10-18T01:04:42.166Z,3.87
2022-10-18T01:07:37.185Z,3.60
2022-10-18T01:10:27.764Z,3.20
2022-10-18T01:13:03.321Z,3.03
2022-10-18T01:15:48.392Z,3.20
2022-10-18T01:18:31.950Z,3.10
2022-10-18T01:21:11.484Z,2.80
2022-10-18T01:24:15.743Z,3.60
2022-10-18T01:27:41.320Z,3.50
2022-10-18T01:30:38.065Z,3.10
2022-10-18T01:33:21.071Z,3.23
2022-10-18T01:35:57.409Z,3.80
2022-10-18T01:38:26.704Z,3.20
2022-10-18T01:40:56.103Z,3.40
2022-10-18T01:43:26.540Z,3.00
2022-10-18T01:45:55.883Z,3.23
2022-10-18T01:48:23.884Z,3.30
2022-10-18T01:50:52.703Z,3.97
2022-10-18T01:53:32.036Z,3.50
2022-10-18T01:56:16.283Z,4.50
2022-10-18T01:58:49.088Z,3.60
2022-10-18T02:01:53.621Z,3.83
2022-10-18T02:04:57.998Z,3.60
2022-10-18T02:08:12.201Z,3.30
2022-10-18T02:11:08.611Z,3.40
2022-10-18T02:13:49.968Z,3.00
2022-10-18T02:16:23.065Z,3.90
2022-10-18T02:18:58.946Z,3.70
2022-10-18T02:21:28.231Z,4.20
2022-10-18T02:23:57.931Z,4.20
2022-10-18T02:26:25.491Z,4.37
2022-10-18T02:28:52.732Z,4.27
2022-10-18T02:31:28.452Z,4.70
2022-10-18T02:34:20.427Z,3.70
2022-10-18T02:37:08.953Z,4.47
2022-10-18T02:39:37.694Z,4.57
2022-10-18T02:42:07.075Z,4.50
2022-10-18T02:44:35.385Z,4.40
2022-10-18T02:47:03.407Z,4.47
2022-10-18T02:49:30.397Z,4.30
2022-10-18T02:51:57.363Z,5.30
2022-10-18T02:54:24.436Z,4.90
2022-10-18T02:56:51.908Z,5.03
2022-10-18T02:59:19.032Z,4.73
2022-10-18T03:01:46.280Z,5.43
2022-10-18T03:04:13.513Z,5.20
2022-10-18T03:06:40.624Z,5.70
2022-10-18T03:09:07.918Z,5.93
2022-10-18T03:11:35.020Z,4.90
2022-10-18T03:14:02.167Z,4.90
2022-10-18T03:16:29.084Z,4.10
2022-10-18T03:18:56.193Z,4.77
2022-10-18T03:21:23.467Z,4.47
2022-10-18T03:23:50.672Z,4.63
2022-10-18T03:26:18.585Z,5.73
2022-10-18T03:28:45.715Z,4.90
2022-10-18T03:31:12.689Z,4.87
2022-10-18T03:33:39.999Z,4.37
2022-10-18T03:36:07.100Z,4.80
2022-10-18T03:38:34.404Z,3.77
2022-10-18T03:41:01.507Z,4.63
2022-10-18T03:43:28.405Z,3.80
2022-10-18T03:45:55.545Z,4.50
2022-10-18T03:48:22.708Z,4.00
2022-10-18T03:50:49.830Z,4.03
2022-10-18T03:53:16.780Z,3.23
2022-10-18T03:55:43.893Z,4.10
2022-10-18T03:58:10.869Z,4.20
2022-10-18T04:00:38.123Z,3.43
2022-10-18T04:03:11.025Z,3.00
2022-10-18T04:05:38.195Z,3.60
2022-10-18T04:08:05.525Z,4.10
2022-10-18T04:10:32.513Z,3.13
2022-10-18T04:12:59.632Z,3.97
2022-10-18T04:15:26.609Z,3.30
2022-10-18T04:17:53.675Z,3.33
2022-10-18T04:20:20.669Z,4.60
2022-10-18T04:22:50.022Z,4.10
2022-10-18T04:25:17.664Z,3.53
2022-10-18T04:27:45.049Z,3.67
2022-10-18T04:30:12.216Z,4.17
2022-10-18T04:32:41.971Z,3.70
2022-10-18T04:35:10.479Z,3.80
2022-10-18T04:37:37.701Z,3.27
2022-10-18T04:40:05.456Z,3.90
2022-10-18T04:42:32.765Z,4.57
2022-10-18T04:44:59.705Z,4.43
2022-10-18T04:47:26.813Z,3.87
2022-10-18T04:49:53.740Z,4.07
2022-10-18T04:52:21.026Z,3.70
2022-10-18T04:54:47.954Z,3.67
2022-10-18T04:57:15.083Z,3.87
2022-10-18T04:59:42.185Z,3.10
2022-10-18T05:02:09.495Z,2.80
2022-10-18T05:04:36.485Z,3.63
2022-10-18T05:07:05.893Z,4.17
2022-10-18T05:09:33.365Z,3.90
2022-10-18T05:12:00.464Z,4.10
2022-10-18T05:14:27.648Z,3.27
2022-10-18T05:16:54.536Z,3.07
2022-10-18T05:19:21.843Z,3.27
2022-10-18T05:21:48.778Z,2.63
2022-10-18T05:24:15.935Z,3.63
2022-10-18T05:26:42.922Z,3.63
2022-10-18T05:29:10.161Z,3.20
2022-10-18T05:31:37.126Z,4.00
2022-10-18T05:34:04.888Z,3.20
2022-10-18T05:36:31.894Z,2.83
2022-10-18T05:39:02.404Z,3.30
2022-10-18T05:41:31.443Z,3.27
2022-10-18T05:43:58.754Z,3.73
2022-10-18T05:46:25.725Z,3.50
2022-10-18T05:48:53.025Z,3.50
2022-10-18T05:51:20.020Z,3.27
2022-10-18T05:53:47.563Z,3.60
2022-10-18T05:56:14.834Z,3.27
2022-10-18T05:58:43.118Z,2.90
2022-10-18T06:01:10.466Z,3.70
2022-10-18T06:03:37.911Z,3.87
2022-10-18T06:06:08.666Z,3.67
2022-10-18T06:08:36.706Z,4.13
2022-10-18T06:11:16.337Z,4.03
2022-10-18T06:13:49.833Z,4.57
2022-10-18T06:16:20.800Z,4.23
2022-10-18T06:18:53.253Z,3.70
2022-10-18T06:21:21.216Z,4.20
2022-10-18T06:23:53.748Z,4.10
2022-10-18T06:26:21.068Z,4.07
2022-10-18T06:28:48.113Z,4.00
2022-10-18T06:31:15.968Z,3.70
2022-10-18T06:33:43.264Z,4.23
2022-10-18T06:36:19.829Z,4.30
2022-10-18T06:38:46.813Z,3.53
2022-10-18T06:41:14.070Z,3.47
2022-10-18T06:43:41.350Z,4.20
2022-10-18T06:46:09.308Z,4.10
2022-10-18T06:48:38.537Z,4.87
2022-10-18T06:51:07.601Z,5.43
2022-10-18T06:53:44.228Z,4.27
2022-10-18T06:56:20.640Z,3.60
2022-10-18T06:58:47.624Z,3.60
2022-10-18T07:01:17.744Z,3.13
2022-10-18T07:03:46.833Z,3.90
2022-10-18T07:06:16.669Z,3.73
2022-10-18T07:08:45.191Z,3.87
2022-10-18T07:11:21.724Z,3.53
2022-10-18T07:13:49.005Z,3.87
2022-10-18T07:16:19.100Z,3.50
2022-10-18T07:18:51.675Z,3.10
2022-10-18T07:21:22.509Z,3.40
2022-10-18T07:23:51.016Z,3.10
2022-10-18T07:26:31.080Z,3.63
2022-10-18T07:29:08.843Z,3.20
2022-10-18T07:31:36.716Z,3.87
2022-10-18T07:34:10.191Z,3.30
2022-10-18T07:36:37.332Z,2.73
2022-10-18T07:39:05.289Z,3.60
2022-10-18T07:41:35.645Z,2.87
2022-10-18T07:44:03.673Z,4.00
2022-10-18T07:46:30.822Z,3.30
2022-10-18T07:48:59.504Z,3.07
2022-10-18T07:51:28.072Z,3.50
2022-10-18T07:53:55.050Z,3.20
2022-10-18T07:56:22.257Z,3.13
2022-10-18T07:58:55.374Z,3.20
2022-10-18T08:01:24.724Z,3.77
2022-10-18T08:03:52.595Z,2.87
2022-10-18T08:06:21.851Z,3.20
2022-10-18T08:08:48.765Z,3.17
2022-10-18T08:11:19.950Z,3.40
2022-10-18T08:13:47.491Z,2.90
2022-10-18T08:16:18.966Z,3.37
2022-10-18T08:18:46.096Z,2.30
2022-10-18T08:21:18.075Z,2.73
2022-10-18T08:23:45.169Z,3.20
2022-10-18T08:26:19.185Z,2.73
2022-10-18T08:28:53.942Z,2.30
2022-10-18T08:31:31.158Z,2.20
2022-10-18T08:33:58.176Z,3.17
2022-10-18T08:36:25.647Z,2.53
2022-10-18T08:38:52.838Z,2.97
2022-10-18T08:41:54.936Z,2.90
2022-10-18T08:44:28.736Z,2.70
2022-10-18T08:47:01.183Z,2.80
2022-10-18T08:49:50.488Z,2.40
2022-10-18T08:52:56.026Z,2.80
2022-10-18T08:56:03.972Z,2.20
2022-10-18T08:58:33.559Z,2.27
2022-10-18T09:01:31.257Z,2.77
2022-10-18T09:04:22.753Z,2.40
2022-10-18T09:07:13.949Z,2.13
2022-10-18T09:10:17.181Z,2.13
2022-10-18T09:13:14.809Z,2.77
2022-10-18T09:15:58.621Z,2.37
2022-10-18T09:18:59.583Z,2.30
2022-10-18T09:21:53.608Z,2.90
2022-10-18T09:24:44.531Z,2.63
2022-10-18T09:27:22.281Z,2.20
2022-10-18T09:29:49.065Z,3.03
2022-10-18T09:32:31.347Z,2.57
2022-10-18T09:35:21.692Z,2.43
2022-10-18T09:37:53.350Z,2.43
2022-10-18T09:40:29.096Z,2.43
2022-10-18T09:43:08.174Z,2.60
2022-10-18T09:45:43.919Z,2.60
2022-10-18T09:48:29.230Z,2.37
2022-10-18T09:51:15.062Z,2.53
2022-10-18T09:54:16.019Z,2.40
2022-10-18T09:57:02.800Z,2.60
2022-10-18T09:59:42.851Z,2.50
2022-10-18T10:02:19.573Z,2.80
2022-10-18T10:04:46.529Z,2.40
2022-10-18T10:07:32.559Z,2.20
2022-10-18T10:10:23.974Z,1.90
2022-10-18T10:13:23.314Z,2.17
2022-10-18T10:16:02.948Z,2.20
2022-10-18T10:18:36.578Z,2.47
2022-10-18T10:21:13.485Z,2.77
2022-10-18T10:23:57.732Z,2.30
2022-10-18T10:26:33.365Z,2.97
2022-10-18T10:29:00.705Z,2.90
2022-10-18T10:31:32.569Z,2.37
2022-10-18T10:34:19.021Z,2.43
2022-10-18T10:36:54.761Z,2.43
2022-10-18T10:39:24.650Z,2.30
2022-10-18T10:41:58.814Z,2.50
2022-10-18T10:44:30.415Z,2.43
2022-10-18T10:46:57.968Z,2.40
2022-10-18T10:49:41.187Z,2.90
2022-10-18T10:52:27.768Z,2.27
2022-10-18T10:57:48.750Z,2.07
2022-10-18T11:00:39.537Z,2.37
2022-10-18T11:03:33.770Z,2.27
2022-10-18T11:06:01.861Z,2.27
2022-10-18T11:08:38.733Z,2.00
2022-10-18T11:11:41.169Z,2.30
2022-10-18T11:14:27.078Z,2.67
2022-10-18T11:17:32.446Z,2.70
2022-10-18T11:20:02.078Z,2.70
2022-10-18T11:22:58.766Z,2.13
2022-10-18T11:25:43.229Z,1.50
2022-10-18T11:28:57.841Z,1.97
2022-10-18T11:31:46.532Z,2.50
2022-10-18T11:34:38.478Z,2.30
2022-10-18T11:37:58.459Z,2.17
2022-10-18T11:40:59.326Z,1.60
2022-10-18T11:44:02.189Z,2.37
2022-10-18T11:47:08.240Z,2.37
2022-10-18T11:50:01.686Z,1.73
2022-10-18T11:53:04.549Z,2.10
2022-10-18T11:56:15.841Z,2.10
2022-10-18T11:59:03.125Z,3.03
2022-10-18T12:01:36.175Z,2.20
2022-10-18T12:04:14.395Z,2.30
2022-10-18T12:06:45.670Z,2.50
2022-10-18T12:09:40.266Z,2.43
2022-10-18T12:12:27.927Z,2.00
2022-10-18T12:15:01.843Z,2.07
2022-10-18T12:17:49.077Z,2.30
2022-10-18T12:20:24.956Z,2.50
2022-10-18T12:23:12.546Z,2.50
2022-10-18T12:25:46.731Z,1.80
2022-10-18T12:28:30.234Z,2.20
2022-10-18T12:31:50.703Z,2.20
2022-10-18T12:34:56.986Z,2.40
2022-10-18T12:38:06.169Z,1.73
2022-10-18T12:40:41.369Z,2.07
2022-10-18T12:43:26.046Z,2.07
2022-10-18T12:45:57.875Z,2.60
2022-10-18T12:48:42.384Z,1.90
2022-10-18T12:51:23.282Z,2.07
2022-10-18T12:54:12.503Z,1.83
2022-10-18T12:56:43.145Z,2.10
2022-10-18T12:59:16.057Z,2.17
2022-10-18T13:01:54.536Z,2.13
2022-10-18T13:04:33.731Z,1.70
2022-10-18T13:07:32.330Z,2.10
2022-10-18T13:10:12.766Z,1.90
2022-10-18T13:12:50.049Z,1.80
2022-10-18T13:15:46.492Z,2.20
2022-10-18T13:18:48.225Z,1.70
2022-10-18T13:21:50.052Z,1.93
2022-10-18T13:24:43.368Z,1.87
2022-10-18T13:27:35.892Z,1.60
2022-10-18T13:30:35.573Z,2.03
2022-10-18T13:33:35.320Z,2.07
2022-10-18T13:36:22.842Z,1.40
2022-10-18T13:38:57.712Z,2.37
2022-10-18T13:41:34.543Z,2.07
2022-10-18T13:44:40.419Z,2.40
2022-10-18T13:47:07.240Z,1.90
2022-10-18T13:49:59.299Z,2.43
2022-10-18T13:52:54.613Z,1.70
2022-10-18T13:56:01.228Z,1.77
2022-10-18T13:59:15.135Z,2.40
2022-10-18T14:01:59.735Z,1.70
2022-10-18T14:05:23.676Z,1.40
2022-10-18T14:07:58.424Z,1.70
2022-10-18T14:11:02.489Z,1.87
2022-10-18T14:14:36.619Z,1.90
2022-10-18T14:18:00.877Z,1.80
2022-10-18T14:21:12.405Z,2.37
2022-10-18T14:23:44.754Z,2.37
2022-10-18T14:26:21.039Z,1.60
2022-10-18T14:29:07.107Z,2.03
2022-10-18T14:31:35.095Z,1.60
2022-10-18T14:34:03.302Z,1.93
2022-10-18T14:36:42.216Z,1.90
2022-10-18T14:39:21.595Z,1.57
2022-10-18T14:41:58.001Z,1.50
2022-10-18T14:44:28.931Z,1.50
2022-10-18T14:46:55.736Z,1.50
2022-10-18T14:49:23.071Z,1.70
2022-10-18T14:51:53.822Z,1.87
2022-10-18T14:54:31.949Z,1.73
2022-10-18T14:57:02.501Z,1.70
2022-10-18T14:59:36.868Z,1.77
2022-10-18T15:02:23.833Z,1.57
2022-10-18T15:05:16.493Z,1.90
2022-10-18T15:07:44.846Z,1.50
2022-10-18T15:10:25.851Z,1.60
2022-10-18T15:13:10.940Z,2.00
2022-10-18T15:15:39.543Z,1.40
2022-10-18T15:18:08.192Z,1.40
2022-10-18T15:20:42.521Z,1.87
2022-10-18T15:23:31.409Z,1.97
2022-10-18T15:26:29.441Z,1.80
2022-10-18T15:29:01.505Z,2.10
2022-10-18T15:31:34.638Z,1.77
2022-10-18T15:34:26.189Z,1.70
2022-10-18T15:36:57.308Z,1.60
2022-10-18T15:39:27.798Z,1.53
2022-10-18T15:42:03.120Z,1.70
2022-10-18T15:44:35.128Z,1.60
2022-10-18T15:47:20.306Z,1.53
2022-10-18T15:49:51.130Z,1.67
2022-10-18T15:52:39.454Z,1.73
2022-10-18T15:55:31.517Z,1.97
2022-10-18T15:58:15.989Z,1.80
2022-10-18T16:00:45.054Z,2.50
2022-10-18T16:03:12.605Z,2.20
2022-10-18T16:05:40.043Z,2.07
2022-10-18T16:08:16.428Z,2.10
2022-10-18T16:10:43.351Z,2.17
2022-10-18T16:13:10.473Z,2.00
2022-10-18T16:15:40.988Z,2.30
2022-10-18T16:18:18.044Z,2.70
2022-10-18T16:20:46.112Z,2.07
2022-10-18T16:23:29.332Z,2.00
2022-10-18T16:25:56.421Z,2.33
2022-10-18T16:28:25.622Z,2.20
2022-10-18T16:31:00.360Z,1.83
2022-10-18T16:33:27.434Z,2.60
2022-10-18T16:35:54.927Z,2.20
2022-10-18T16:38:42.826Z,2.70
2022-10-18T16:41:10.849Z,3.20
2022-10-18T16:43:38.577Z,2.40
2022-10-18T16:46:07.866Z,2.20
2022-10-18T16:48:35.273Z,2.40
2022-10-18T16:51:02.406Z,2.43
2022-10-18T16:53:29.741Z,3.20
2022-10-18T16:56:00.805Z,2.83
2022-10-18T16:58:29.980Z,3.10
2022-10-18T17:00:57.927Z,2.70
2022-10-18T17:03:26.224Z,2.80
2022-10-18T17:05:54.164Z,2.80
2022-10-18T17:08:25.122Z,3.00
2022-10-18T17:10:56.390Z,3.00
2022-10-18T17:13:24.821Z,2.13
2022-10-18T17:15:52.889Z,2.53
2022-10-18T17:18:26.288Z,3.00
2022-10-18T17:20:53.676Z,3.03
2022-10-18T17:23:20.656Z,3.20
2022-10-18T17:25:59.117Z,3.43
2022-10-18T17:28:34.928Z,3.70
2022-10-18T17:31:01.897Z,4.00
2022-10-18T17:33:29.188Z,3.80
2022-10-18T17:35:56.118Z,4.13
2022-10-18T17:38:23.047Z,4.50
2022-10-18T17:40:52.717Z,3.40
2022-10-18T17:43:19.998Z,2.93
2022-10-18T17:45:55.463Z,3.20
2022-10-18T17:48:24.495Z,3.03
2022-10-18T17:50:51.526Z,3.00
2022-10-18T17:53:22.744Z,2.50
2022-10-18T17:55:49.740Z,3.00
2022-10-18T17:58:17.046Z,2.40
2022-10-18T18:00:44.052Z,2.60
2022-10-18T18:03:11.089Z,2.40
2022-10-18T18:05:38.025Z,3.07
2022-10-18T18:08:05.317Z,2.90
2022-10-18T18:10:33.845Z,2.43
2022-10-18T18:13:01.714Z,2.67
2022-10-18T18:15:47.590Z,2.23
2022-10-18T18:18:14.668Z,2.87
2022-10-18T18:20:41.567Z,2.40
2022-10-18T18:23:08.512Z,2.70
2022-10-18T18:25:35.432Z,3.80
2022-10-18T18:28:05.226Z,2.83
2022-10-18T18:30:34.412Z,2.83
2022-10-18T18:33:01.634Z,3.27
2022-10-18T18:35:28.534Z,3.50
2022-10-18T18:37:55.544Z,2.90
2022-10-18T18:40:24.009Z,3.57
2022-10-18T18:43:07.317Z,3.37
2022-10-18T18:45:38.400Z,3.37
2022-10-18T18:48:05.821Z,2.60
2022-10-18T18:50:35.052Z,2.80
2022-10-18T18:53:02.186Z,2.50
2022-10-18T18:55:31.198Z,3.10
2022-10-18T18:57:58.424Z,2.77
2022-10-18T19:00:25.560Z,3.00
2022-10-18T19:02:52.517Z,2.90
2022-10-18T19:05:19.780Z,2.80
2022-10-18T19:07:46.722Z,3.30
2022-10-18T19:10:13.724Z,3.17
2022-10-18T19:12:40.720Z,2.93
2022-10-18T19:15:08.305Z,2.93
2022-10-18T19:17:35.541Z,2.77
2022-10-18T19:20:04.997Z,2.57
2022-10-18T19:22:31.974Z,3.10
2022-10-18T19:24:58.909Z,2.80
2022-10-18T19:27:25.894Z,3.23
2022-10-18T19:29:52.873Z,2.80
2022-10-18T19:32:20.291Z,3.70
2022-10-18T19:34:47.241Z,2.63
2022-10-18T19:37:15.897Z,3.10
2022-10-18T19:39:42.940Z,2.23
2022-10-18T19:42:17.438Z,3.37
2022-10-18T19:44:48.022Z,3.40
2022-10-18T19:47:15.319Z,3.27
2022-10-18T19:49:46.242Z,3.27
2022-10-18T19:52:13.523Z,3.30
2022-10-18T19:54:40.624Z,3.30
2022-10-18T19:57:07.662Z,3.40
2022-10-18T19:59:36.012Z,3.60
2022-10-18T20:02:04.727Z,3.40
2022-10-18T20:04:34.674Z,3.37
2022-10-18T20:07:02.799Z,2.87
2022-10-18T20:09:30.048Z,3.00
2022-10-18T20:11:57.101Z,3.23
2022-10-18T20:14:24.139Z,3.30
2022-10-18T20:16:51.366Z,3.57
2022-10-18T20:19:18.409Z,3.47
2022-10-18T20:21:45.529Z,3.60
2022-10-18T20:24:12.587Z,3.73
2022-10-18T20:26:39.903Z,3.60
2022-10-18T20:29:07.864Z,3.47
2022-10-18T20:31:38.326Z,3.67
2022-10-18T20:34:13.711Z,3.33
2022-10-18T20:36:40.979Z,4.30
2022-10-18T20:39:09.483Z,3.10
2022-10-18T20:41:40.992Z,3.93
2022-10-18T20:44:13.407Z,3.70
2022-10-18T20:46:41.500Z,3.43
2022-10-18T20:49:12.581Z,3.90
2022-10-18T20:51:39.895Z,3.80
2022-10-18T20:54:09.537Z,3.33
2022-10-18T20:56:38.712Z,3.83
2022-10-18T20:59:09.437Z,3.90
2022-10-18T21:01:38.337Z,3.43
2022-10-18T21:04:08.441Z,3.80
2022-10-18T21:06:42.211Z,3.00
2022-10-18T21:09:18.953Z,3.63
2022-10-18T21:11:50.197Z,3.93
2022-10-18T21:14:23.384Z,3.57
2022-10-18T21:16:52.186Z,3.93
2022-10-18T21:19:26.233Z,3.83
2022-10-18T21:21:56.328Z,3.57
2022-10-18T21:24:25.171Z,3.63
2022-10-18T21:26:52.436Z,3.80
2022-10-18T21:29:22.228Z,4.00
2022-10-18T21:31:53.777Z,3.60
2022-10-18T21:34:21.052Z,4.00
2022-10-18T21:36:49.003Z,3.37
2022-10-18T21:39:20.113Z,3.43
2022-10-18T21:41:47.833Z,3.30
2022-10-18T21:44:15.890Z,3.40
2022-10-18T21:46:43.322Z,3.43
2022-10-18T21:49:10.831Z,3.77
2022-10-18T21:51:38.514Z,3.80
2022-10-18T21:54:10.804Z,3.33
2022-10-18T21:56:37.814Z,3.70
2022-10-18T21:59:05.442Z,3.87
2022-10-18T22:01:38.400Z,3.60
2022-10-18T22:04:25.219Z,3.50
2022-10-18T22:06:52.892Z,3.53
2022-10-18T22:09:21.439Z,3.67
2022-10-18T22:11:52.607Z,3.67
2022-10-18T22:14:20.423Z,2.57
2022-10-18T22:16:47.960Z,3.73
2022-10-18T22:19:14.943Z,3.53
2022-10-18T22:21:42.212Z,3.83
2022-10-18T22:24:10.235Z,3.53
2022-10-18T22:26:40.965Z,3.53
2022-10-18T22:29:14.878Z,3.63
2022-10-18T22:31:46.539Z,3.80
2022-10-18T22:34:21.416Z,4.07
2022-10-18T22:36:48.716Z,4.40
2022-10-18T22:39:16.861Z,3.80
2022-10-18T22:41:44.713Z,3.33
2022-10-18T22:44:13.987Z,3.50
2022-10-18T22:46:42.257Z,4.00
2022-10-18T22:49:09.357Z,3.97
2022-10-18T22:51:36.517Z,3.37
2022-10-18T22:54:03.874Z,3.43
2022-10-18T22:56:30.848Z,4.10
2022-10-18T22:58:58.034Z,3.33
2022-10-18T23:01:25.639Z,4.10
2022-10-18T23:03:57.785Z,3.43
2022-10-18T23:06:32.794Z,4.30
2022-10-18T23:09:04.922Z,4.20
2022-10-18T23:11:32.860Z,4.80
2022-10-18T23:14:00.768Z,4.87
2022-10-18T23:16:29.620Z,5.17
2022-10-18T23:18:58.185Z,4.90
2022-10-18T23:21:28.261Z,4.30
2022-10-18T23:23:56.573Z,3.70
2022-10-18T23:26:26.370Z,3.90
2022-10-18T23:28:54.687Z,3.80
2022-10-18T23:31:28.360Z,3.93
2022-10-18T23:33:57.858Z,4.40
2022-10-18T23:36:25.322Z,3.50
2022-10-18T23:38:52.536Z,3.83
2022-10-18T23:41:20.241Z,3.67
2022-10-18T23:43:47.606Z,3.80
2022-10-18T23:46:16.430Z,3.70
2022-10-18T23:48:44.200Z,3.97
2022-10-18T23:51:11.265Z,3.57
2022-10-18T23:53:38.897Z,3.87
2022-10-18T23:56:10.758Z,4.10
2022-10-18T23:58:39.159Z,2.83
